SLLP/LPB METAR and TAF weather

Enter ICAO airport designator
Station Type Date Time Source
SLLP METAR 2018/12/17 17:00 UTC NOAA

SLLP 171700Z 02006KT 6000 -TSRA FEW007 SCT013 SCT020CB BKN070 06/06 Q1038


Station Type Date Time Source
SLLP Decoded METAR 2018/12/17 17:00 UTC NOAA

La Paz / Alto, Bolivia (SLLP) 16-31S 068-11W 4038M
Dec 17, 2018 - 12:00 PM EST / 2018.12.17 1700 UTC
Wind: from the NNE (020 degrees) at 7 MPH (6 KT):0
Visibility: 3 mile(s):0
Sky conditions: mostly cloudy
Weather: light rain with thunder; Cumulonimbus clouds observed
Temperature: 42 F (6 C)
Dew Point: 42 F (6 C)
Relative Humidity: 100%
Pressure (altimeter): 30.65 in. Hg (1038 hPa)
ob: SLLP 171700Z 02006KT 6000 -TSRA FEW007 SCT013 SCT020CB BKN070 06/06 Q1038
cycle: 17

Station Type Date Time Source
SLLP TAF 2018/12/17 18:55 UTC NOAA

TAF SLLP 171650Z 1718/1818 04010G20KT 8000 VCTSSH SCT015 FEW023CB BKN070 TX12/1720Z TN06/1810Z
BECMG 1802/1804 10005KT 3000E VCFG
TEMPO 1806/1809 RA
BECMG 1812/1814 FEW015 SCT070


Example: see airport list